KBLU/BLU METAR and TAF weather

Enter ICAO airport designator
Station Type Date Time Source
KBLU METAR 2019/04/19 21:52 UTC NOAA

KBLU 192152Z AUTO 26007KT 220V290 10SM SCT065 19/03 A3008 RMK AO2 SLP114 T01890033


Station Type Date Time Source
KBLU Decoded METAR 2019/04/19 21:52 UTC NOAA

BLUE CANYON AIRPORT, CA, United States (KBLU) 39-17N 120-42W 1609M
Apr 19, 2019 - 05:52 PM EDT / 2019.04.19 2152 UTC
Wind: from the W (260 degrees) at 8 MPH (7 KT) (direction variable):0
Visibility: 10 mile(s):0
Sky conditions: partly cloudy
Temperature: 66.0 F (18.9 C)
Dew Point: 37.9 F (3.3 C)
Relative Humidity: 35%
Pressure (altimeter): 30.08 in. Hg (1018 hPa)
ob: KBLU 192152Z AUTO 26007KT 220V290 10SM SCT065 19/03 A3008 RMK AO2 SLP114 T01890033
cycle: 22

Station Type Date Time Source
KBLU TAF UTC NOAA

Error!

Example: see airport list